sensor_id;sensor_type;location;lat;lon;timestamp;pressure;altitude;pressure_sealevel;temperature;humidity
61682;BME280;47577;43.610;25.010;2023-12-20T00:00:56;100734.31;;;3.17;88.17
61682;BME280;47577;43.610;25.010;2023-12-20T00:03:21;100733.41;;;2.92;88.47
61682;BME280;47577;43.610;25.010;2023-12-20T00:05:47;100742.13;;;2.88;90.80
61682;BME280;47577;43.610;25.010;2023-12-20T00:08:13;100753.63;;;3.19;92.38
61682;BME280;47577;43.610;25.010;2023-12-20T00:10:39;100743.06;;;3.08;87.52
61682;BME280;47577;43.610;25.010;2023-12-20T00:13:04;100753.50;;;2.91;87.59
61682;BME280;47577;43.610;25.010;2023-12-20T00:15:30;100750.91;;;2.88;87.99
61682;BME280;47577;43.610;25.010;2023-12-20T00:17:55;100751.72;;;2.80;88.61
61682;BME280;47577;43.610;25.010;2023-12-20T00:20:21;100740.38;;;2.85;88.36
61682;BME280;47577;43.610;25.010;2023-12-20T00:22:46;100736.03;;;2.90;85.58
61682;BME280;47577;43.610;25.010;2023-12-20T00:25:12;100743.00;;;2.95;82.76
61682;BME280;47577;43.610;25.010;2023-12-20T00:27:38;100744.78;;;2.94;84.20
61682;BME280;47577;43.610;25.010;2023-12-20T00:30:04;100741.25;;;2.89;84.75
61682;BME280;47577;43.610;25.010;2023-12-20T00:32:29;100737.75;;;2.91;84.51
61682;BME280;47577;43.610;25.010;2023-12-20T00:34:55;100729.00;;;2.94;83.03
61682;BME280;47577;43.610;25.010;2023-12-20T00:37:21;100731.63;;;2.91;82.37
61682;BME280;47577;43.610;25.010;2023-12-20T00:39:47;100719.38;;;2.87;81.82
61682;BME280;47577;43.610;25.010;2023-12-20T00:42:13;100712.31;;;2.78;81.75
61682;BME280;47577;43.610;25.010;2023-12-20T00:44:39;100725.44;;;2.75;83.22
61682;BME280;47577;43.610;25.010;2023-12-20T00:47:04;100720.19;;;2.64;83.51
61682;BME280;47577;43.610;25.010;2023-12-20T00:49:30;100707.88;;;2.54;83.35
61682;BME280;47577;43.610;25.010;2023-12-20T00:51:55;100700.84;;;2.47;82.48
61682;BME280;47577;43.610;25.010;2023-12-20T00:54:21;100698.19;;;2.37;82.44
61682;BME280;47577;43.610;25.010;2023-12-20T00:56:47;100697.25;;;2.26;85.35
61682;BME280;47577;43.610;25.010;2023-12-20T00:59:12;100684.91;;;2.07;85.18
61682;BME280;47577;43.610;25.010;2023-12-20T01:01:38;100684.88;;;2.00;84.32
61682;BME280;47577;43.610;25.010;2023-12-20T01:04:04;100674.28;;;1.85;87.15
61682;BME280;47577;43.610;25.010;2023-12-20T01:06:29;100674.34;;;1.91;87.50
61682;BME280;47577;43.610;25.010;2023-12-20T01:08:55;100679.53;;;1.82;84.20
61682;BME280;47577;43.610;25.010;2023-12-20T01:11:21;100673.38;;;1.77;85.45
61682;BME280;47577;43.610;25.010;2023-12-20T01:13:48;100666.28;;;1.67;84.98
61682;BME280;47577;43.610;25.010;2023-12-20T01:16:13;100665.41;;;1.63;85.65
61682;BME280;47577;43.610;25.010;2023-12-20T01:18:39;100653.91;;;1.45;87.16
61682;BME280;47577;43.610;25.010;2023-12-20T01:21:05;100656.47;;;1.36;89.04
61682;BME280;47577;43.610;25.010;2023-12-20T01:23:32;100660.84;;;1.37;88.14
61682;BME280;47577;43.610;25.010;2023-12-20T01:25:58;100644.22;;;1.34;87.73
61682;BME280;47577;43.610;25.010;2023-12-20T01:28:25;100652.91;;;1.25;87.25
61682;BME280;47577;43.610;25.010;2023-12-20T01:30:51;100644.09;;;1.18;88.30
61682;BME280;47577;43.610;25.010;2023-12-20T01:33:16;100655.47;;;1.19;88.23
61682;BME280;47577;43.610;25.010;2023-12-20T01:35:42;100654.56;;;1.20;88.36
61682;BME280;47577;43.610;25.010;2023-12-20T01:38:08;100637.88;;;1.08;86.51
61682;BME280;47577;43.610;25.010;2023-12-20T01:40:34;100637.94;;;1.13;88.36
61682;BME280;47577;43.610;25.010;2023-12-20T01:43:01;100623.84;;;0.99;90.47
61682;BME280;47577;43.610;25.010;2023-12-20T01:45:27;100631.66;;;0.93;91.16
61682;BME280;47577;43.610;25.010;2023-12-20T01:47:54;100621.09;;;0.85;91.95
61682;BME280;47577;43.610;25.010;2023-12-20T01:50:21;100619.41;;;0.91;90.83
61682;BME280;47577;43.610;25.010;2023-12-20T01:52:47;100615.97;;;0.97;90.09
61682;BME280;47577;43.610;25.010;2023-12-20T01:55:13;100621.28;;;1.06;90.21
61682;BME280;47577;43.610;25.010;2023-12-20T01:57:42;100611.66;;;1.02;89.84
61682;BME280;47577;43.610;25.010;2023-12-20T02:00:09;100611.47;;;0.82;89.41
61682;BME280;47577;43.610;25.010;2023-12-20T02:02:39;100599.22;;;0.77;89.63
61682;BME280;47577;43.610;25.010;2023-12-20T02:05:08;100585.31;;;0.84;90.18
61682;BME280;47577;43.610;25.010;2023-12-20T02:07:34;100577.50;;;0.88;89.60
61682;BME280;47577;43.610;25.010;2023-12-20T02:10:01;100569.66;;;0.91;88.01
61682;BME280;47577;43.610;25.010;2023-12-20T02:12:27;100569.72;;;0.98;89.50
61682;BME280;47577;43.610;25.010;2023-12-20T02:14:52;100577.66;;;1.08;87.70
61682;BME280;47577;43.610;25.010;2023-12-20T02:17:19;100567.25;;;1.16;87.08
61682;BME280;47577;43.610;25.010;2023-12-20T02:19:45;100553.25;;;1.14;88.12
61682;BME280;47577;43.610;25.010;2023-12-20T02:22:12;100566.41;;;1.22;87.50
61682;BME280;47577;43.610;25.010;2023-12-20T02:24:38;100562.13;;;1.32;87.21
61682;BME280;47577;43.610;25.010;2023-12-20T02:27:06;100541.22;;;1.39;87.07
61682;BME280;47577;43.610;25.010;2023-12-20T02:29:33;100548.25;;;1.51;84.64
61682;BME280;47577;43.610;25.010;2023-12-20T02:31:59;100546.59;;;1.67;84.39
61682;BME280;47577;43.610;25.010;2023-12-20T02:34:24;100534.41;;;1.78;83.96
61682;BME280;47577;43.610;25.010;2023-12-20T02:36:50;100539.72;;;1.97;83.87
61682;BME280;47577;43.610;25.010;2023-12-20T02:39:16;100531.88;;;2.01;83.23
61682;BME280;47577;43.610;25.010;2023-12-20T02:41:41;100535.38;;;2.08;83.03
61682;BME280;47577;43.610;25.010;2023-12-20T02:44:07;100536.28;;;2.18;82.65
61682;BME280;47577;43.610;25.010;2023-12-20T02:46:33;100536.31;;;2.23;81.84
61682;BME280;47577;43.610;25.010;2023-12-20T02:48:58;100532.81;;;2.21;82.68
61682;BME280;47577;43.610;25.010;2023-12-20T02:51:24;100538.94;;;2.23;83.13
61682;BME280;47577;43.610;25.010;2023-12-20T02:53:52;100531.94;;;2.26;82.76
61682;BME280;47577;43.610;25.010;2023-12-20T02:56:18;100526.69;;;2.28;81.32
61682;BME280;47577;43.610;25.010;2023-12-20T02:58:44;100530.22;;;2.37;83.43
61682;BME280;47577;43.610;25.010;2023-12-20T03:01:09;100524.09;;;2.31;85.06
61682;BME280;47577;43.610;25.010;2023-12-20T03:03:35;100517.97;;;2.29;85.50
61682;BME280;47577;43.610;25.010;2023-12-20T03:06:03;100514.44;;;2.33;81.05
61682;BME280;47577;43.610;25.010;2023-12-20T03:08:29;100518.84;;;2.37;78.99
61682;BME280;47577;43.610;25.010;2023-12-20T03:10:55;100514.44;;;2.27;79.35
61682;BME280;47577;43.610;25.010;2023-12-20T03:13:23;100515.31;;;2.21;80.93
61682;BME280;47577;43.610;25.010;2023-12-20T03:15:49;100522.34;;;2.25;80.90
61682;BME280;47577;43.610;25.010;2023-12-20T03:18:14;100521.41;;;2.09;78.74
61682;BME280;47577;43.610;25.010;2023-12-20T03:20:40;100517.00;;;2.05;78.50
61682;BME280;47577;43.610;25.010;2023-12-20T03:23:07;100512.63;;;1.96;80.95
61682;BME280;47577;43.610;25.010;2023-12-20T03:25:32;100509.03;;;1.73;83.37
61682;BME280;47577;43.610;25.010;2023-12-20T03:27:58;100508.16;;;1.69;83.71
61682;BME280;47577;43.610;25.010;2023-12-20T03:30:23;100510.78;;;1.72;82.09
61682;BME280;47577;43.610;25.010;2023-12-20T03:32:49;100498.50;;;1.59;81.00
61682;BME280;47577;43.610;25.010;2023-12-20T03:35:14;100500.22;;;1.55;80.87
61682;BME280;47577;43.610;25.010;2023-12-20T03:37:40;100500.94;;;1.30;84.18
61682;BME280;47577;43.610;25.010;2023-12-20T03:40:06;100488.69;;;1.19;86.29
61682;BME280;47577;43.610;25.010;2023-12-20T03:42:32;100488.72;;;1.25;84.58
61682;BME280;47577;43.610;25.010;2023-12-20T03:44:57;100480.88;;;1.25;84.10
61682;BME280;47577;43.610;25.010;2023-12-20T03:47:23;100478.16;;;1.13;83.82
61682;BME280;47577;43.610;25.010;2023-12-20T03:49:48;100480.72;;;0.99;84.77
61682;BME280;47577;43.610;25.010;2023-12-20T03:52:14;100473.63;;;0.89;85.88
61682;BME280;47577;43.610;25.010;2023-12-20T03:54:40;100471.84;;;0.80;85.36
61682;BME280;47577;43.610;25.010;2023-12-20T03:57:07;100480.44;;;0.62;86.93
61682;BME280;47577;43.610;25.010;2023-12-20T03:59:39;100477.66;;;0.42;87.40
61682;BME280;47577;43.610;25.010;2023-12-20T04:02:05;100468.84;;;0.34;88.17
61682;BME280;47577;43.610;25.010;2023-12-20T04:04:30;100463.63;;;0.37;88.62
61682;BME280;47577;43.610;25.010;2023-12-20T04:06:56;100470.63;;;0.36;88.77
61682;BME280;47577;43.610;25.010;2023-12-20T04:09:21;100457.41;;;0.23;89.07
61682;BME280;47577;43.610;25.010;2023-12-20T04:11:47;100460.03;;;0.23;90.35
61682;BME280;47577;43.610;25.010;2023-12-20T04:14:13;100469.44;;;0.02;91.95
61682;BME280;47577;43.610;25.010;2023-12-20T04:16:38;100457.34;;;0.15;92.96
61682;BME280;47577;43.610;25.010;2023-12-20T04:19:04;100443.41;;;0.16;92.88
61682;BME280;47577;43.610;25.010;2023-12-20T04:21:30;100456.50;;;0.19;92.08
61682;BME280;47577;43.610;25.010;2023-12-20T04:23:56;100453.81;;;0.11;91.05
61682;BME280;47577;43.610;25.010;2023-12-20T04:26:21;100454.69;;;0.10;91.19
61682;BME280;47577;43.610;25.010;2023-12-20T04:28:47;100448.56;;;0.11;91.14
61682;BME280;47577;43.610;25.010;2023-12-20T04:31:13;100451.28;;;0.21;91.90
61682;BME280;47577;43.610;25.010;2023-12-20T04:33:38;100452.06;;;0.09;91.81
61682;BME280;47577;43.610;25.010;2023-12-20T04:36:04;100444.00;;;-0.14;92.97
61682;BME280;47577;43.610;25.010;2023-12-20T04:38:30;100447.66;;;0.05;93.37
61682;BME280;47577;43.610;25.010;2023-12-20T04:40:56;100444.34;;;0.24;92.46
61682;BME280;47577;43.610;25.010;2023-12-20T04:43:22;100433.97;;;0.33;90.92
61682;BME280;47577;43.610;25.010;2023-12-20T04:45:47;100433.13;;;0.34;90.60
61682;BME280;47577;43.610;25.010;2023-12-20T04:48:13;100429.56;;;0.26;91.88
61682;BME280;47577;43.610;25.010;2023-12-20T04:50:39;100434.75;;;0.23;93.22
61682;BME280;47577;43.610;25.010;2023-12-20T04:53:04;100425.41;;;0.53;92.52
61682;BME280;47577;43.610;25.010;2023-12-20T04:55:30;100419.25;;;0.48;90.32
61682;BME280;47577;43.610;25.010;2023-12-20T04:57:56;100423.66;;;0.55;90.45
61682;BME280;47577;43.610;25.010;2023-12-20T05:00:21;100423.72;;;0.61;90.52
61682;BME280;47577;43.610;25.010;2023-12-20T05:02:47;100423.75;;;0.64;89.38
61682;BME280;47577;43.610;25.010;2023-12-20T05:05:13;100421.19;;;0.72;87.59
61682;BME280;47577;43.610;25.010;2023-12-20T05:07:40;100422.00;;;0.62;87.70
61682;BME280;47577;43.610;25.010;2023-12-20T05:10:06;100408.81;;;0.51;88.03
61682;BME280;47577;43.610;25.010;2023-12-20T05:12:33;100415.81;;;0.52;86.57
61682;BME280;47577;43.610;25.010;2023-12-20T05:14:59;100418.44;;;0.50;85.45
61682;BME280;47577;43.610;25.010;2023-12-20T05:17:25;100423.66;;;0.50;86.13
61682;BME280;47577;43.610;25.010;2023-12-20T05:19:51;100411.44;;;0.49;88.03
61682;BME280;47577;43.610;25.010;2023-12-20T05:22:17;100408.72;;;0.39;89.48
61682;BME280;47577;43.610;25.010;2023-12-20T05:24:42;100408.59;;;0.23;91.47
61682;BME280;47577;43.610;25.010;2023-12-20T05:27:08;100399.06;;;0.28;91.27
61682;BME280;47577;43.610;25.010;2023-12-20T05:29:33;100400.03;;;0.40;90.70
61682;BME280;47577;43.610;25.010;2023-12-20T05:31:59;100407.91;;;0.43;88.71
61682;BME280;47577;43.610;25.010;2023-12-20T05:34:25;100406.09;;;0.37;88.65
61682;BME280;47577;43.610;25.010;2023-12-20T05:36:50;100407.03;;;0.42;87.23
61682;BME280;47577;43.610;25.010;2023-12-20T05:39:16;100406.13;;;0.43;87.18
61682;BME280;47577;43.610;25.010;2023-12-20T05:41:42;100416.66;;;0.51;87.02
61682;BME280;47577;43.610;25.010;2023-12-20T05:44:08;100407.09;;;0.53;87.21
61682;BME280;47577;43.610;25.010;2023-12-20T05:46:33;100407.16;;;0.61;86.87
61682;BME280;47577;43.610;25.010;2023-12-20T05:48:59;100389.66;;;0.58;86.70
61682;BME280;47577;43.610;25.010;2023-12-20T05:51:24;100398.47;;;0.69;85.75
61682;BME280;47577;43.610;25.010;2023-12-20T05:53:50;100389.75;;;0.67;85.99
61682;BME280;47577;43.610;25.010;2023-12-20T05:56:16;100376.59;;;0.58;85.82
61682;BME280;47577;43.610;25.010;2023-12-20T05:58:42;100394.16;;;0.71;87.20
61682;BME280;47577;43.610;25.010;2023-12-20T06:01:08;100396.69;;;0.64;87.72
61682;BME280;47577;43.610;25.010;2023-12-20T06:03:34;100397.53;;;0.61;87.96
61682;BME280;47577;43.610;25.010;2023-12-20T06:06:07;100388.69;;;0.44;89.23
61682;BME280;47577;43.610;25.010;2023-12-20T06:08:33;100383.41;;;0.33;90.76
61682;BME280;47577;43.610;25.010;2023-12-20T06:10:58;100382.72;;;0.57;91.04
61682;BME280;47577;43.610;25.010;2023-12-20T06:13:24;100380.13;;;0.65;91.06
61682;BME280;47577;43.610;25.010;2023-12-20T06:15:50;100374.00;;;0.63;91.47
61682;BME280;47577;43.610;25.010;2023-12-20T06:18:16;100370.59;;;0.71;91.47
61682;BME280;47577;43.610;25.010;2023-12-20T06:20:41;100379.44;;;0.95;91.31
61682;BME280;47577;43.610;25.010;2023-12-20T06:23:07;100375.13;;;1.09;90.73
61682;BME280;47577;43.610;25.010;2023-12-20T06:25:33;100370.75;;;1.08;89.97
61682;BME280;47577;43.610;25.010;2023-12-20T06:27:58;100367.31;;;1.14;90.32
61682;BME280;47577;43.610;25.010;2023-12-20T06:30:24;100372.59;;;1.26;89.90
61682;BME280;47577;43.610;25.010;2023-12-20T06:32:50;100376.97;;;1.32;89.39
61682;BME280;47577;43.610;25.010;2023-12-20T06:35:16;100375.22;;;1.37;89.43
61682;BME280;47577;43.610;25.010;2023-12-20T06:37:42;100376.13;;;1.39;89.93
61682;BME280;47577;43.610;25.010;2023-12-20T06:40:09;100360.41;;;1.42;89.96
61682;BME280;47577;43.610;25.010;2023-12-20T06:42:35;100363.91;;;1.51;89.25
61682;BME280;47577;43.610;25.010;2023-12-20T06:45:01;100365.66;;;1.52;89.24
61682;BME280;47577;43.610;25.010;2023-12-20T06:47:27;100360.47;;;1.61;89.92
61682;BME280;47577;43.610;25.010;2023-12-20T06:49:52;100361.34;;;1.64;89.70
61682;BME280;47577;43.610;25.010;2023-12-20T06:52:18;100364.84;;;1.74;90.35
61682;BME280;47577;43.610;25.010;2023-12-20T06:54:43;100355.25;;;1.82;90.65
61682;BME280;47577;43.610;25.010;2023-12-20T06:57:09;100355.28;;;2.01;90.34
61682;BME280;47577;43.610;25.010;2023-12-20T06:59:39;100352.66;;;2.04;89.47
61682;BME280;47577;43.610;25.010;2023-12-20T07:02:05;100357.00;;;2.02;89.95
61682;BME280;47577;43.610;25.010;2023-12-20T07:04:31;100357.03;;;2.21;89.39
61682;BME280;47577;43.610;25.010;2023-12-20T07:06:56;100358.75;;;2.29;89.56
61682;BME280;47577;43.610;25.010;2023-12-20T07:09:25;100356.13;;;2.46;88.84
61682;BME280;47577;43.610;25.010;2023-12-20T07:11:51;100344.75;;;2.46;88.27
61682;BME280;47577;43.610;25.010;2023-12-20T07:14:20;100356.09;;;2.55;88.49
61682;BME280;47577;43.610;25.010;2023-12-20T07:16:46;100362.19;;;2.70;88.19
61682;BME280;47577;43.610;25.010;2023-12-20T07:19:12;100353.47;;;2.74;88.57
61682;BME280;47577;43.610;25.010;2023-12-20T07:21:38;100354.31;;;2.84;89.02
61682;BME280;47577;43.610;25.010;2023-12-20T07:24:03;100354.31;;;2.82;87.93
61682;BME280;47577;43.610;25.010;2023-12-20T07:26:29;100342.03;;;2.87;88.46
61682;BME280;47577;43.610;25.010;2023-12-20T07:28:54;100337.63;;;2.94;87.11
61682;BME280;47577;43.610;25.010;2023-12-20T07:31:20;100335.84;;;3.01;87.91
61682;BME280;47577;43.610;25.010;2023-12-20T07:33:46;100331.44;;;3.09;88.06
61682;BME280;47577;43.610;25.010;2023-12-20T07:36:12;100335.78;;;3.19;87.95
61682;BME280;47577;43.610;25.010;2023-12-20T07:38:38;100338.34;;;3.28;86.90
61682;BME280;47577;43.610;25.010;2023-12-20T07:41:03;100340.94;;;3.38;86.40
61682;BME280;47577;43.610;25.010;2023-12-20T07:43:29;100327.81;;;3.35;85.14
61682;BME280;47577;43.610;25.010;2023-12-20T07:45:55;100330.44;;;3.32;85.16
61682;BME280;47577;43.610;25.010;2023-12-20T07:48:20;100327.81;;;3.30;84.85
61682;BME280;47577;43.610;25.010;2023-12-20T07:50:46;100322.50;;;3.44;86.54
61682;BME280;47577;43.610;25.010;2023-12-20T07:53:12;100328.56;;;3.55;86.86
61682;BME280;47577;43.610;25.010;2023-12-20T07:55:37;100322.41;;;3.58;87.28
61682;BME280;47577;43.610;25.010;2023-12-20T07:58:04;100340.72;;;3.75;87.70
61682;BME280;47577;43.610;25.010;2023-12-20T08:00:30;100318.75;;;3.79;87.54
61682;BME280;47577;43.610;25.010;2023-12-20T08:02:56;100313.47;;;3.83;87.13
61682;BME280;47577;43.610;25.010;2023-12-20T08:05:21;100319.50;;;3.98;88.19
61682;BME280;47577;43.610;25.010;2023-12-20T08:07:47;100315.97;;;4.03;86.08
61682;BME280;47577;43.610;25.010;2023-12-20T08:10:13;100315.09;;;4.00;84.80
61682;BME280;47577;43.610;25.010;2023-12-20T08:12:39;100312.47;;;4.00;84.54
61682;BME280;47577;43.610;25.010;2023-12-20T08:15:05;100303.69;;;4.02;86.32
61682;BME280;47577;43.610;25.010;2023-12-20T08:17:31;100318.63;;;4.00;84.88
61682;BME280;47577;43.610;25.010;2023-12-20T08:19:57;100309.91;;;3.91;84.26
61682;BME280;47577;43.610;25.010;2023-12-20T08:22:22;100306.41;;;3.87;85.28
61682;BME280;47577;43.610;25.010;2023-12-20T08:24:48;100311.59;;;3.99;88.28
61682;BME280;47577;43.610;25.010;2023-12-20T08:27:14;100300.00;;;4.20;89.39
61682;BME280;47577;43.610;25.010;2023-12-20T08:29:40;100291.22;;;4.21;88.69
61682;BME280;47577;43.610;25.010;2023-12-20T08:32:05;100289.38;;;4.33;89.37
61682;BME280;47577;43.610;25.010;2023-12-20T08:34:31;100291.91;;;4.40;87.78
61682;BME280;47577;43.610;25.010;2023-12-20T08:36:57;100276.00;;;4.53;88.61
61682;BME280;47577;43.610;25.010;2023-12-20T08:39:22;100273.28;;;4.59;89.57
61682;BME280;47577;43.610;25.010;2023-12-20T08:41:48;100256.50;;;4.66;89.36
61682;BME280;47577;43.610;25.010;2023-12-20T08:44:13;100246.88;;;4.67;86.95
61682;BME280;47577;43.610;25.010;2023-12-20T08:46:39;100255.59;;;4.72;87.11
61682;BME280;47577;43.610;25.010;2023-12-20T08:49:05;100248.53;;;4.72;88.79
61682;BME280;47577;43.610;25.010;2023-12-20T08:51:30;100256.28;;;4.86;88.64
61682;BME280;47577;43.610;25.010;2023-12-20T08:53:56;100248.97;;;5.07;92.32
61682;BME280;47577;43.610;25.010;2023-12-20T08:56:22;100236.72;;;5.06;90.78
61682;BME280;47577;43.610;25.010;2023-12-20T08:58:47;100234.03;;;5.09;87.90
61682;BME280;47577;43.610;25.010;2023-12-20T09:01:14;100243.41;;;5.28;90.93
61682;BME280;47577;43.610;25.010;2023-12-20T09:03:40;100229.34;;;5.28;88.61
61682;BME280;47577;43.610;25.010;2023-12-20T09:06:06;100232.91;;;5.25;86.89
61682;BME280;47577;43.610;25.010;2023-12-20T09:08:32;100223.88;;;5.42;90.37
61682;BME280;47577;43.610;25.010;2023-12-20T09:10:59;100212.31;;;5.50;89.30
61682;BME280;47577;43.610;25.010;2023-12-20T09:13:26;100203.38;;;5.61;89.17
61682;BME280;47577;43.610;25.010;2023-12-20T09:15:55;100205.81;;;5.72;88.94
61682;BME280;47577;43.610;25.010;2023-12-20T09:18:21;100196.06;;;5.77;88.59
61682;BME280;47577;43.610;25.010;2023-12-20T09:20:46;100183.59;;;5.85;88.47
61682;BME280;47577;43.610;25.010;2023-12-20T09:23:12;100183.38;;;5.99;88.58
61682;BME280;47577;43.610;25.010;2023-12-20T09:25:37;100187.59;;;6.09;87.90
61682;BME280;47577;43.610;25.010;2023-12-20T09:28:03;100182.09;;;6.20;87.78
61682;BME280;47577;43.610;25.010;2023-12-20T09:30:29;100169.66;;;6.25;87.63
61682;BME280;47577;43.610;25.010;2023-12-20T09:32:55;100165.91;;;6.38;87.02
61682;BME280;47577;43.610;25.010;2023-12-20T09:35:21;100161.44;;;6.42;85.62
61682;BME280;47577;43.610;25.010;2023-12-20T09:37:47;100150.81;;;6.45;85.29
61682;BME280;47577;43.610;25.010;2023-12-20T09:40:13;100141.09;;;6.46;85.09
61682;BME280;47577;43.610;25.010;2023-12-20T09:42:57;100130.59;;;6.43;85.03
61682;BME280;47577;43.610;25.010;2023-12-20T09:45:23;100140.16;;;6.48;84.49
61682;BME280;47577;43.610;25.010;2023-12-20T09:47:53;100135.69;;;6.52;84.66
61682;BME280;47577;43.610;25.010;2023-12-20T09:50:21;100129.41;;;6.56;84.45
61682;BME280;47577;43.610;25.010;2023-12-20T09:52:52;100127.53;;;6.63;85.26
61682;BME280;47577;43.610;25.010;2023-12-20T09:55:18;100122.09;;;6.69;85.08
61682;BME280;47577;43.610;25.010;2023-12-20T09:57:46;100108.78;;;6.73;83.66
61682;BME280;47577;43.610;25.010;2023-12-20T10:00:12;100103.56;;;6.70;84.27
61682;BME280;47577;43.610;25.010;2023-12-20T10:02:44;100104.22;;;6.80;84.33
61682;BME280;47577;43.610;25.010;2023-12-20T10:05:15;100103.91;;;6.94;83.43
61682;BME280;47577;43.610;25.010;2023-12-20T10:07:41;100095.38;;;6.83;82.04
61682;BME280;47577;43.610;25.010;2023-12-20T10:10:07;100096.13;;;6.88;81.64
61682;BME280;47577;43.610;25.010;2023-12-20T10:12:34;100088.94;;;6.93;83.24
61682;BME280;47577;43.610;25.010;2023-12-20T10:14:59;100085.16;;;7.05;83.95
61682;BME280;47577;43.610;25.010;2023-12-20T10:17:27;100071.66;;;7.16;82.80
61682;BME280;47577;43.610;25.010;2023-12-20T10:19:54;100069.03;;;7.16;83.09
61682;BME280;47577;43.610;25.010;2023-12-20T10:22:21;100058.94;;;7.31;82.61
61682;BME280;47577;43.610;25.010;2023-12-20T10:24:47;100057.91;;;7.37;82.65
61682;BME280;47577;43.610;25.010;2023-12-20T10:27:12;100055.09;;;7.43;82.60
61682;BME280;47577;43.610;25.010;2023-12-20T10:29:38;100053.31;;;7.44;82.02
61682;BME280;47577;43.610;25.010;2023-12-20T10:32:23;100061.19;;;7.47;82.07
61682;BME280;47577;43.610;25.010;2023-12-20T10:34:53;100053.13;;;7.52;80.96
61682;BME280;47577;43.610;25.010;2023-12-20T10:37:19;100050.88;;;7.69;82.16
61682;BME280;47577;43.610;25.010;2023-12-20T10:39:51;100048.72;;;7.83;80.24
61682;BME280;47577;43.610;25.010;2023-12-20T10:42:20;100044.63;;;8.03;78.97
61682;BME280;47577;43.610;25.010;2023-12-20T10:44:47;100050.56;;;8.11;76.80
61682;BME280;47577;43.610;25.010;2023-12-20T10:47:13;100030.81;;;8.23;77.02
61682;BME280;47577;43.610;25.010;2023-12-20T10:49:40;100025.47;;;8.24;76.93
61682;BME280;47577;43.610;25.010;2023-12-20T10:52:06;100024.41;;;8.30;76.95
61682;BME280;47577;43.610;25.010;2023-12-20T10:54:32;100006.59;;;8.35;75.37
61682;BME280;47577;43.610;25.010;2023-12-20T10:56:58;100007.34;;;8.39;75.86
61682;BME280;47577;43.610;25.010;2023-12-20T10:59:24;100007.97;;;8.49;78.28
61682;BME280;47577;43.610;25.010;2023-12-20T11:01:50;100011.41;;;8.52;78.75
61682;BME280;47577;43.610;25.010;2023-12-20T11:04:25;99996.03;;;8.64;79.83
61682;BME280;47577;43.610;25.010;2023-12-20T11:07:08;99991.44;;;8.69;78.60
61682;BME280;47577;43.610;25.010;2023-12-20T11:09:47;99995.56;;;8.77;78.20
61682;BME280;47577;43.610;25.010;2023-12-20T11:12:19;99983.84;;;8.85;77.58
61682;BME280;47577;43.610;25.010;2023-12-20T11:14:50;99994.31;;;8.89;76.22
61682;BME280;47577;43.610;25.010;2023-12-20T11:17:16;99985.44;;;8.90;77.24
61682;BME280;47577;43.610;25.010;2023-12-20T11:22:32;99975.53;;;8.95;77.51
61682;BME280;47577;43.610;25.010;2023-12-20T11:25:06;99963.34;;;8.90;74.66
61682;BME280;47577;43.610;25.010;2023-12-20T11:27:47;99975.75;;;8.89;75.09
61682;BME280;47577;43.610;25.010;2023-12-20T11:30:21;99968.59;;;8.91;73.46
61682;BME280;47577;43.610;25.010;2023-12-20T11:32:47;99965.25;;;8.86;74.39
61682;BME280;47577;43.610;25.010;2023-12-20T11:37:39;99974.56;;;8.71;75.88
61682;BME280;47577;43.610;25.010;2023-12-20T11:40:12;99966.78;;;8.67;75.76
61682;BME280;47577;43.610;25.010;2023-12-20T11:42:40;99965.91;;;8.66;75.33
61682;BME280;47577;43.610;25.010;2023-12-20T11:45:19;99955.38;;;8.63;76.63
61682;BME280;47577;43.610;25.010;2023-12-20T11:47:49;99949.09;;;8.67;77.79
61682;BME280;47577;43.610;25.010;2023-12-20T11:50:22;99944.63;;;8.68;76.32
61682;BME280;47577;43.610;25.010;2023-12-20T11:52:49;99946.94;;;8.78;78.12
61682;BME280;47577;43.610;25.010;2023-12-20T11:55:15;99946.13;;;8.76;77.57
61682;BME280;47577;43.610;25.010;2023-12-20T11:57:42;99938.31;;;8.99;78.01
61682;BME280;47577;43.610;25.010;2023-12-20T12:00:08;99930.09;;;9.06;74.49
61682;BME280;47577;43.610;25.010;2023-12-20T12:02:34;99933.44;;;9.11;75.01
61682;BME280;47577;43.610;25.010;2023-12-20T12:05:00;99940.97;;;9.24;74.88
61682;BME280;47577;43.610;25.010;2023-12-20T12:07:25;99929.03;;;9.36;73.64
61682;BME280;47577;43.610;25.010;2023-12-20T12:09:51;99935.81;;;9.44;70.91
61682;BME280;47577;43.610;25.010;2023-12-20T12:12:17;99926.19;;;9.65;72.67
61682;BME280;47577;43.610;25.010;2023-12-20T12:14:46;99920.19;;;9.84;70.45
61682;BME280;47577;43.610;25.010;2023-12-20T12:17:12;99917.81;;;10.00;69.50
61682;BME280;47577;43.610;25.010;2023-12-20T12:19:39;99913.00;;;10.10;68.51
61682;BME280;47577;43.610;25.010;2023-12-20T12:22:05;99901.69;;;10.27;69.24
61682;BME280;47577;43.610;25.010;2023-12-20T12:24:32;99902.91;;;10.41;69.59
61682;BME280;47577;43.610;25.010;2023-12-20T12:26:58;99899.66;;;10.55;68.89
61682;BME280;47577;43.610;25.010;2023-12-20T12:29:24;99889.88;;;10.56;69.51
61682;BME280;47577;43.610;25.010;2023-12-20T12:31:50;99874.00;;;10.54;68.36
61682;BME280;47577;43.610;25.010;2023-12-20T12:34:17;99879.94;;;10.61;68.77
61682;BME280;47577;43.610;25.010;2023-12-20T12:36:43;99881.97;;;10.54;68.05
61682;BME280;47577;43.610;25.010;2023-12-20T12:39:11;99875.00;;;10.52;67.94
61682;BME280;47577;43.610;25.010;2023-12-20T12:41:37;99867.16;;;10.49;67.42
61682;BME280;47577;43.610;25.010;2023-12-20T12:44:03;99876.31;;;10.41;68.02
61682;BME280;47577;43.610;25.010;2023-12-20T12:46:32;99862.41;;;10.35;68.04
61682;BME280;47577;43.610;25.010;2023-12-20T12:48:58;99869.56;;;10.33;67.56
61682;BME280;47577;43.610;25.010;2023-12-20T12:51:24;99870.63;;;10.29;67.85